createdAt,value
2022-07-30T06:07:30.799Z,1.98
2022-07-30T06:10:12.231Z,2.20
2022-07-30T06:12:49.249Z,2.10
2022-07-30T06:15:28.748Z,2.42
2022-07-30T06:18:05.628Z,2.60
2022-07-30T06:20:57.474Z,2.58
2022-07-30T06:23:59.016Z,2.20
2022-07-30T06:27:05.206Z,2.45
2022-07-30T06:29:42.513Z,2.75
2022-07-30T06:32:21.000Z,2.25
2022-07-30T06:35:04.334Z,2.15
2022-07-30T06:38:05.665Z,1.95
2022-07-30T06:40:43.553Z,1.92
2022-07-30T06:43:28.509Z,1.30
2022-07-30T06:46:17.912Z,1.90
2022-07-30T06:48:59.642Z,2.22
2022-07-30T06:51:37.181Z,3.10
2022-07-30T06:54:14.898Z,1.33
2022-07-30T06:57:26.881Z,2.50
2022-07-30T07:00:04.596Z,1.60
2022-07-30T07:02:46.464Z,1.30
2022-07-30T07:05:29.679Z,1.23
2022-07-30T07:08:08.466Z,1.40
2022-07-30T07:10:50.279Z,1.20
2022-07-30T07:13:44.523Z,1.83
2022-07-30T07:16:28.179Z,1.58
2022-07-30T07:19:06.045Z,1.40
2022-07-30T07:21:43.223Z,1.70
2022-07-30T07:24:20.323Z,1.52
2022-07-30T07:27:16.543Z,1.60
2022-07-30T07:30:05.063Z,2.30
2022-07-30T07:32:45.933Z,2.38
2022-07-30T07:35:23.983Z,2.03
2022-07-30T07:38:01.320Z,1.92
2022-07-30T07:40:39.659Z,1.80
2022-07-30T07:43:16.707Z,1.75
2022-07-30T07:45:57.144Z,1.33
2022-07-30T07:48:37.070Z,1.38
2022-07-30T07:51:46.750Z,1.83
2022-07-30T07:54:27.569Z,1.40
2022-07-30T07:57:10.410Z,1.58
2022-07-30T07:59:54.614Z,1.00
2022-07-30T08:02:39.625Z,1.30
2022-07-30T08:05:19.540Z,1.17
2022-07-30T08:07:56.230Z,1.17
2022-07-30T08:10:51.539Z,1.17
2022-07-30T08:13:54.413Z,1.00
2022-07-30T08:17:00.999Z,1.25
2022-07-30T08:20:11.908Z,1.40
2022-07-30T08:22:48.946Z,1.48
2022-07-30T08:25:26.537Z,2.25
2022-07-30T08:28:03.852Z,1.40
2022-07-30T08:30:40.895Z,1.38
2022-07-30T08:33:17.883Z,1.33
2022-07-30T08:36:03.956Z,1.13
2022-07-30T08:38:43.298Z,1.00
2022-07-30T08:41:23.069Z,1.00
2022-07-30T08:44:02.813Z,0.75
2022-07-30T08:46:47.467Z,1.40
2022-07-30T08:49:53.048Z,1.00
2022-07-30T08:52:39.419Z,1.45
2022-07-30T08:55:18.880Z,1.15
2022-07-30T08:57:55.848Z,1.30
2022-07-30T09:00:34.462Z,2.70
2022-07-30T09:03:11.200Z,1.55
2022-07-30T09:05:48.409Z,1.00
2022-07-30T09:08:28.518Z,1.15
2022-07-30T09:11:06.138Z,0.90
2022-07-30T09:13:44.924Z,1.13
2022-07-30T09:16:25.520Z,1.15
2022-07-30T09:19:16.983Z,0.90
2022-07-30T09:22:03.561Z,1.13
2022-07-30T09:25:15.795Z,1.00
2022-07-30T09:28:33.503Z,1.10
2022-07-30T09:31:26.421Z,1.10
2022-07-30T09:34:30.920Z,0.90
2022-07-30T09:37:30.759Z,0.90
2022-07-30T09:40:32.383Z,1.10
2022-07-30T09:43:30.981Z,1.10
2022-07-30T09:46:20.903Z,1.20
2022-07-30T09:49:18.980Z,1.17
2022-07-30T09:51:59.201Z,0.90
2022-07-30T09:54:54.344Z,0.90
2022-07-30T09:57:37.463Z,1.17
2022-07-30T10:00:30.072Z,0.90
2022-07-30T10:06:42.518Z,0.70
2022-07-30T10:09:33.040Z,1.10
2022-07-30T10:12:16.780Z,0.88
2022-07-30T10:15:02.204Z,1.10
2022-07-30T10:17:43.803Z,1.02
2022-07-30T10:20:37.444Z,1.60
2022-07-30T10:23:44.333Z,0.90
2022-07-30T10:26:51.323Z,0.80
2022-07-30T10:29:47.065Z,1.35
2022-07-30T10:32:30.979Z,1.10
2022-07-30T10:35:09.482Z,1.35
2022-07-30T10:37:53.176Z,0.77
2022-07-30T10:40:35.990Z,0.88
2022-07-30T10:44:09.811Z,1.30
2022-07-30T10:50:15.693Z,1.02
2022-07-30T10:52:55.879Z,0.98
2022-07-30T10:55:38.954Z,0.75
2022-07-30T10:58:22.879Z,0.90
2022-07-30T11:01:03.509Z,1.17
2022-07-30T11:03:45.093Z,1.13
2022-07-30T11:06:34.326Z,0.90
2022-07-30T11:09:41.849Z,1.17
2022-07-30T11:12:39.317Z,1.05
2022-07-30T11:15:19.082Z,0.68
2022-07-30T11:18:11.339Z,0.93
2022-07-30T11:21:24.194Z,0.70
2022-07-30T11:24:04.590Z,0.82
2022-07-30T11:26:56.666Z,1.08
2022-07-30T11:29:50.492Z,0.82
2022-07-30T11:32:32.090Z,0.65
2022-07-30T11:35:24.549Z,0.75
2022-07-30T11:38:12.487Z,0.70
2022-07-30T11:41:15.927Z,0.90
2022-07-30T11:44:12.717Z,1.08
2022-07-30T11:46:52.778Z,1.02
2022-07-30T11:49:37.667Z,0.80
2022-07-30T11:52:15.284Z,0.70
2022-07-30T11:54:56.647Z,0.98
2022-07-30T11:57:46.865Z,0.80
2022-07-30T12:00:24.335Z,1.10
2022-07-30T12:03:03.953Z,0.80
2022-07-30T12:05:41.676Z,1.00
2022-07-30T12:08:31.648Z,0.85
2022-07-30T12:11:13.798Z,0.60
2022-07-30T12:14:04.528Z,1.10
2022-07-30T12:16:42.711Z,0.70
2022-07-30T12:19:19.979Z,0.90
2022-07-30T12:22:01.676Z,1.00
2022-07-30T12:24:38.897Z,1.02
2022-07-30T12:27:16.087Z,1.10
2022-07-30T12:29:55.809Z,1.02
2022-07-30T12:32:32.721Z,1.13
2022-07-30T12:35:10.728Z,0.95
2022-07-30T12:38:07.688Z,0.90
2022-07-30T12:41:00.329Z,0.90
2022-07-30T12:43:59.212Z,0.88
2022-07-30T12:46:44.392Z,1.10
2022-07-30T12:49:22.795Z,1.00
2022-07-30T12:52:00.764Z,1.15
2022-07-30T12:54:37.787Z,1.15
2022-07-30T12:57:14.816Z,1.05
2022-07-30T13:00:03.738Z,0.82
2022-07-30T13:02:43.587Z,0.70
2022-07-30T13:05:20.625Z,1.00
2022-07-30T13:08:00.820Z,0.85
2022-07-30T13:10:37.645Z,1.42
2022-07-30T13:13:14.806Z,1.33
2022-07-30T13:16:03.293Z,0.80
2022-07-30T13:18:43.434Z,1.20
2022-07-30T13:21:20.166Z,1.02
2022-07-30T13:23:57.436Z,0.93
2022-07-30T13:26:35.947Z,1.10
2022-07-30T13:29:13.836Z,0.60
2022-07-30T13:31:50.743Z,1.30
2022-07-30T13:34:30.435Z,1.23
2022-07-30T13:37:07.175Z,1.00
2022-07-30T13:39:44.304Z,1.20
2022-07-30T13:42:21.004Z,1.17
2022-07-30T13:44:58.676Z,1.15
2022-07-30T13:47:36.096Z,1.50
2022-07-30T13:50:15.976Z,1.30
2022-07-30T13:52:52.896Z,1.50
2022-07-30T13:55:30.544Z,1.20
2022-07-30T13:58:07.435Z,1.27
2022-07-30T14:00:45.533Z,0.88
2022-07-30T14:03:22.359Z,1.52
2022-07-30T14:06:11.139Z,1.48
2022-07-30T14:08:48.936Z,1.10
2022-07-30T14:11:26.513Z,2.00
2022-07-30T14:14:03.260Z,1.58
2022-07-30T14:16:45.627Z,1.25
2022-07-30T14:19:24.364Z,1.25
2022-07-30T14:22:04.769Z,1.20
2022-07-30T14:24:42.130Z,1.10
2022-07-30T14:27:23.642Z,1.20
2022-07-30T14:30:00.460Z,1.20
2022-07-30T14:32:38.091Z,0.90
2022-07-30T14:35:15.703Z,0.95
2022-07-30T14:37:55.372Z,1.10
2022-07-30T14:40:32.398Z,1.40
2022-07-30T14:43:09.560Z,0.93
2022-07-30T14:45:50.838Z,1.25
2022-07-30T14:48:27.908Z,1.15
2022-07-30T14:51:17.938Z,1.67
2022-07-30T14:54:01.740Z,1.48
2022-07-30T14:56:38.407Z,1.88
2022-07-30T14:59:15.367Z,1.08
2022-07-30T15:01:52.985Z,1.00
2022-07-30T15:04:30.126Z,1.00
2022-07-30T15:07:06.965Z,1.55
2022-07-30T15:09:46.727Z,1.15
2022-07-30T15:12:27.178Z,1.40
2022-07-30T15:15:04.407Z,1.13
2022-07-30T15:17:43.306Z,0.98
2022-07-30T15:20:20.349Z,1.10
2022-07-30T15:22:57.288Z,1.13
2022-07-30T15:25:36.975Z,1.10
2022-07-30T15:28:13.827Z,1.20
2022-07-30T15:30:50.887Z,1.63
2022-07-30T15:33:27.918Z,1.15
2022-07-30T15:36:04.960Z,1.30
2022-07-30T15:38:42.306Z,1.33
2022-07-30T15:41:21.946Z,1.10
2022-07-30T15:43:58.628Z,1.13
2022-07-30T15:46:35.786Z,1.02
2022-07-30T15:49:12.718Z,1.40
2022-07-30T15:51:50.785Z,1.60
2022-07-30T15:54:27.635Z,1.58
2022-07-30T15:57:07.669Z,1.55
2022-07-30T15:59:44.476Z,1.45
2022-07-30T16:02:21.587Z,1.25
2022-07-30T16:04:58.336Z,1.38
2022-07-30T16:07:36.805Z,1.60
2022-07-30T16:10:14.057Z,1.35
2022-07-30T16:12:53.747Z,1.50
2022-07-30T16:15:30.769Z,1.30
2022-07-30T16:18:08.643Z,0.80
2022-07-30T16:20:45.330Z,1.00
2022-07-30T16:23:22.386Z,1.02
2022-07-30T16:25:59.067Z,1.23
2022-07-30T16:28:39.798Z,1.08
2022-07-30T16:31:16.566Z,1.00
2022-07-30T16:33:53.615Z,1.00
2022-07-30T16:36:30.457Z,1.10
2022-07-30T16:39:08.556Z,1.10
2022-07-30T16:41:45.639Z,1.20
2022-07-30T16:44:27.388Z,1.15
2022-07-30T16:47:04.209Z,1.13
2022-07-30T16:49:41.248Z,1.45
2022-07-30T16:52:18.616Z,1.50
2022-07-30T16:54:55.647Z,1.83
2022-07-30T16:57:32.388Z,1.65
2022-07-30T17:00:15.515Z,1.10
2022-07-30T17:02:52.647Z,1.45
2022-07-30T17:05:30.733Z,1.10
2022-07-30T17:08:09.905Z,1.45
2022-07-30T17:10:50.186Z,1.67
2022-07-30T17:13:27.321Z,1.40
2022-07-30T17:16:07.450Z,1.42
2022-07-30T17:18:44.307Z,1.38
2022-07-30T17:21:21.627Z,1.10
2022-07-30T17:23:58.317Z,1.02
2022-07-30T17:26:35.743Z,1.23
2022-07-30T17:29:14.852Z,1.80
2022-07-30T17:31:55.506Z,1.30
2022-07-30T17:34:32.491Z,1.15
2022-07-30T17:37:09.569Z,1.00
2022-07-30T17:40:19.160Z,1.15
2022-07-30T17:42:45.724Z,1.20
2022-07-30T17:45:22.447Z,1.30
2022-07-30T17:48:02.393Z,1.15
2022-07-30T17:50:39.459Z,1.05
2022-07-30T17:53:16.499Z,1.02
2022-07-30T17:55:57.561Z,1.27
2022-07-30T17:58:35.499Z,1.60
2022-07-30T18:01:12.325Z,0.90
2022-07-30T18:03:52.019Z,1.25
2022-07-30T18:06:28.780Z,1.38
2022-07-30T18:09:06.696Z,1.25
2022-07-30T18:11:44.094Z,1.10
2022-07-30T18:14:21.149Z,1.33
2022-07-30T18:16:58.949Z,1.98
2022-07-30T18:19:38.661Z,1.80
2022-07-30T18:22:29.103Z,1.13
2022-07-30T18:25:07.727Z,1.35
2022-07-30T18:27:44.520Z,1.10
2022-07-30T18:30:22.001Z,1.27
2022-07-30T18:32:58.832Z,1.45
2022-07-30T18:35:39.329Z,1.40
2022-07-30T18:38:16.130Z,1.40
2022-07-30T18:41:00.762Z,1.55
2022-07-30T18:43:48.161Z,1.33
2022-07-30T18:46:25.699Z,1.60
2022-07-30T18:49:15.445Z,1.60
2022-07-30T18:52:03.017Z,1.65
2022-07-30T18:54:40.916Z,1.50
2022-07-30T18:57:18.267Z,1.50
2022-07-30T18:59:55.073Z,1.70
2022-07-30T19:02:32.174Z,1.52
2022-07-30T19:05:11.284Z,1.70
2022-07-30T19:07:57.870Z,1.80
2022-07-30T19:10:36.104Z,1.92
2022-07-30T19:13:13.280Z,1.83
2022-07-30T19:15:50.246Z,2.08
2022-07-30T19:18:27.396Z,3.17
2022-07-30T19:21:04.336Z,1.63
2022-07-30T19:23:44.517Z,2.00
2022-07-30T19:26:21.816Z,1.90
2022-07-30T19:28:58.885Z,1.70
2022-07-30T19:31:35.648Z,2.17
